North Portal, Canada
Current Conditions -  °F | °C
As of 12:00 PM on Thursday 23 Oct 2014 (Local Time) from CYEN Reporting Station
Broken Clouds Broken Clouds  
Wind Chill: 59°   Ceiling: 23000
Heat Index: 59°   Visibility: 15mi
Dew Point: 37°   Wind: 13mph
Humidity: 45%   Direction: 220°SW
Pressure: 29.76"   Gusts: NA
Location:  49°N, 102.55°W
Report Text: CYEN 231800Z 22011KT 15SM FEW100 BKN230 BKN250 15/03 A2976 RMK AC1CS2CI0 HALO SLP093
Loading
Personal Weather Stations






























Interactive Weather Map
Tropical Storm Tracking
New forecast layout! Learn more

10-Day Weather Forecast

Advertisements
Track Severe Weather on mobile